Flugplatz Saulgau

Für EDTU sind keine METAR/TAF Berichte vorhanden.
Es werden die Flugwettermeldungen vom Flugplatz Laupheim Airport in 36 km Entfernung angezeigt.

Bericht für ETHL

vom 23.02. um 22:20 UTC

Wind 20 kt aus 260°

Sichtweite 10 km oder mehr

aufgebrochene Bewölkung in 2700 ft

Temperatur 12.0°C

Taupunkt 7.0°C

Luftfeuchtigkeit 71%

Luftdruck 1021 hPa

ETHL 232220Z 26020KT 9999 BKN027 12/07 Q1021 BLU
Keine Prognose (TAF) verfügbar.
Impressum